AirNav   Pilot Hours Calculator
 
 591 users online  

59KY Samuels Springs Airport
Deatsville, Kentucky, USA

GOING TO DEATSVILLE?


FAA INFORMATION EFFECTIVE 19 MAY 2022

Location

FAA Identifier: 59KY
Lat/Long: 37-53-52.2200N 085-33-18.8410W
37-53.870333N 085-33.314017W
37.8978389,-85.5552336
(estimated)
Elevation: 690 ft. / 210 m (estimated)
Variation: 02W (1990)
Time zone: UTC -4 (UTC -5 during Standard Time)
Zip code: 40013

Airport Operations

Airport use: Private use. Permission required prior to landing
Activation date: 12/1991
Control tower: no
ARTCC: INDIANAPOLIS CENTER
FSS: LOUISVILLE FLIGHT SERVICE STATION
Attendance: MON-SAT 0800-1700
Wind indicator: yes
Segmented circle: no

Airport Communications

WX AWOS-3 at BRY (6 nm SE): 119.925 (502-348-1867)
WX ASOS at SDF (19 nm NW): PHONE 502-367-1492

Nearby radio navigation aids

VOR radial/distance  VOR name  Freq  Var
IIUr174/12.4LOUISVILLE VORTAC114.8001E
EWOr019/17.0NEW HOPE VOR/DME110.8001E
FTKr093/19.8FORT KNOX VOR/DME109.6001W
MYSr091/(32.6)MYSTIC VOR108.2001W
FFTr244/(35.0)FRANKFORT VOR109.4003W

 
NDB name  Hdg/Dist  Freq  Var  ID
GODMAN103/20.339603WGOI --. --- ..

Airport Services

Runway Information

Runway 3/21

Dimensions: 2750 x 110 ft. / 838 x 34 m
Surface: turf, in good condition
RUNWAY 3  RUNWAY 21
Traffic pattern: leftleft

Airport Ownership and Management from official FAA records

Ownership: Privately-owned
Owner: DR ART SHULTHISE
2601 KINGS HWY
LOUISVILLE, KY 40205
Phone 502-459-4495
502-459-0350 FAX
Manager: DR ART SHULTHISE
2601 KINGS HWY
LOUISVILLE, KY 40205
Phone 502-459-4495

Airport Operational Statistics

Aircraft based on the field: 2
Single engine airplanes: 1
Multi engine airplanes: 1
    

Additional Remarks

FOR CD CTC LOUISVILLE APCH AT 502-375-7499

Instrument Procedures

There are no published instrument procedures at 59KY.

Some nearby airports with instrument procedures:

KBRY - Samuels Field Airport (6 nm SE)
KSDF - Louisville Muhammad Ali International Airport (19 nm NW)
KFTK - Godman Army Airfield (20 nm W)
KLOU - Bowman Field Airport (20 nm N)
KEKX - Addington Field Airport (22 nm SW)
 
Loc | Ops | Rwys | IFR | FBO | Links
Com | Nav | Svcs | Stats | Notes
Area around 59KY (Samuels Springs Airport)
 
Road maps at: MapQuest Bing Google
 
Aerial photo
WARNING: Photo may not be current or correct
Aerial photo of 59KY (Samuels Springs Airport)
Do you have a better or more recent aerial photo of Samuels Springs Airport that you would like to share? If so, please send us your photo.

 
Sectional chart

 
Airport distance calculator
Flying to Samuels Springs Airport? Find the distance to fly.

From to 59KY

Sunrise and sunset
Times for 27-May-2022
 Local
(UTC-4)
 Zulu
(UTC)
Morning civil twilight05:5409:54
Sunrise06:2510:25
Sunset20:5400:54
Evening civil twilight21:2401:24

Current date and time
Zulu (UTC)  27-May-2022 06:39:24
Local (UTC-4)  27-May-2022 02:39:24
 
METAR
KBRY 
6nm SE 
270555Z AUTO 00000KT 10SM SCT090 14/14 A2982 RMK AO1
KEKX 
18nm SW 
270555Z AUTO 00000KT 10SM BKN050 OVC060 16/13 A2983 RMK AO2 T01610133 10200 20155 402280155
KSDF 
19nm NW 
270556Z 09004KT 10SM FEW040 OVC090 18/16 A2980 RMK AO2 SLP089 60024 T01780161 10211 20172 58006 $
KFTK 
20nm W 
270556Z AUTO 00000KT 10SM BKN050 OVC060 16/16 A2980 RMK AO2 RAB27E37 SLP089 P0000 60003 T01600158 10204 20150 58007 $
KLOU 
20nm N 
270553Z AUTO 09003KT 6SM BR BKN090 17/16 A2981 RMK AO2 SLP091 60030 T01670156 10211 20161 58004 $
TAF
KSDF 
19nm NW 
270539Z 2706/2812 20005KT P6SM VCSH BKN080 FM271100 20006KT P6SM VCSH OVC029 FM271400 23009KT P6SM VCSH BKN017 PROB30 2715/2716 4SM -SHRA BR FM271600 24009KT P6SM BKN022 FM280000 27011KT P6SM SCT040 FM280400 30007KT P6SM BKN011
KFTK 
20nm W 
270152Z 2701/2801 16012KT 9000 -SHRA SCT025 BKN035 OVC070 QNH2977INS TEMPO 2701/2703 19020G25KT 3200 TSRA BKN020CB OVC030 BECMG 2705/2706 VRB06KT 4800 BR FEW009 BKN015 QNH2977INS BECMG 2711/2712 21012KT 8000 -SHRA SCT009 OVC015 QNH2978INS BECMG 2719/2720 26010G15KT 9999 NSW SCT023 BKN035 OVC055 QNH2976INS TX19/2702Z TN14/2711Z LAST NO AMDS AFT 2703 NEXT 2711
NOTAMs
Click for the latest NOTAMs
NOTAMs are issued by the DoD/FAA and will open in a separate window not controlled by AirNav.

 

 
 

Would you like to see your business listed on this page?

 If your business provides an interesting product or service to pilots, flight crews, aircraft, or users of the Samuels Springs Airport, you should consider listing it here.  To start the listing process, click on the button below
 
Add a business
 

Other Pages about Samuels Springs Airport

Update a link
 
Copyright © AirNav, LLC. All rights reserved. Privacy Policy  Contact